createdAt,value
2022-10-15T00:01:41.881Z,100565.75
2022-10-15T00:04:08.860Z,100569.72
2022-10-15T00:06:36.014Z,100560.78
2022-10-15T00:09:03.032Z,100566.63
2022-10-15T00:11:31.614Z,100560.56
2022-10-15T00:14:00.194Z,100558.75
2022-10-15T00:16:28.881Z,100567.50
2022-10-15T00:18:57.377Z,100564.19
2022-10-15T00:21:24.536Z,100563.56
2022-10-15T00:23:51.447Z,100569.91
2022-10-15T00:26:23.245Z,100565.19
2022-10-15T00:28:52.598Z,100571.91
2022-10-15T00:31:24.588Z,100572.59
2022-10-15T00:33:52.988Z,100569.47
2022-10-15T00:36:23.545Z,100564.50
2022-10-15T00:38:51.309Z,100560.19
2022-10-15T00:41:25.761Z,100557.03
2022-10-15T00:43:58.775Z,100564.94
2022-10-15T00:46:39.255Z,100554.63
2022-10-15T00:49:33.700Z,100559.97
2022-10-15T00:52:16.170Z,100550.78
2022-10-15T00:54:52.410Z,100552.69
2022-10-15T00:57:19.811Z,100554.25
2022-10-15T00:59:54.298Z,100548.25
2022-10-15T01:02:21.882Z,100557.44
2022-10-15T01:04:50.808Z,100554.81
2022-10-15T01:09:49.625Z,100554.84
2022-10-15T01:12:55.965Z,100556.63
2022-10-15T01:15:31.878Z,100557.81
2022-10-15T01:18:20.684Z,100547.97
2022-10-15T01:21:04.756Z,100552.88
2022-10-15T01:23:52.364Z,100551.22
2022-10-15T01:26:34.642Z,100547.56
2022-10-15T01:29:13.560Z,100535.47
2022-10-15T01:32:07.888Z,100542.34
2022-10-15T01:34:49.255Z,100534.00
2022-10-15T01:37:27.225Z,100529.16
2022-10-15T01:40:04.237Z,100522.66
2022-10-15T01:42:44.071Z,100528.81
2022-10-15T01:45:17.921Z,100528.66
2022-10-15T01:47:58.975Z,100527.50
2022-10-15T01:50:30.727Z,100525.91
2022-10-15T01:53:00.070Z,100516.44
2022-10-15T01:55:27.528Z,100520.19
2022-10-15T01:57:58.576Z,100515.56
2022-10-15T02:00:25.711Z,100512.34
2022-10-15T02:02:52.474Z,100510.13
2022-10-15T02:05:29.896Z,100508.84
2022-10-15T02:08:19.059Z,100515.22
2022-10-15T02:10:52.201Z,100506.69
2022-10-15T02:13:24.589Z,100499.66
2022-10-15T02:16:11.375Z,100505.13
2022-10-15T02:19:02.257Z,100498.00
2022-10-15T02:21:47.330Z,100498.00
2022-10-15T02:24:20.339Z,100495.00
2022-10-15T02:26:49.933Z,100488.63
2022-10-15T02:29:21.678Z,100489.72
2022-10-15T02:31:50.851Z,100493.75
2022-10-15T02:34:20.986Z,100494.72
2022-10-15T02:36:49.016Z,100489.66
2022-10-15T02:39:21.138Z,100488.47
2022-10-15T02:41:49.422Z,100490.28
2022-10-15T02:44:16.683Z,100485.78
2022-10-15T02:46:43.692Z,100481.91
2022-10-15T02:49:12.093Z,100485.16
2022-10-15T02:51:38.995Z,100483.97
2022-10-15T02:54:07.159Z,100489.69
2022-10-15T02:56:35.238Z,100494.91
2022-10-15T02:59:03.294Z,100484.28
2022-10-15T03:01:30.913Z,100477.38
2022-10-15T03:03:58.402Z,100475.41
2022-10-15T03:06:25.780Z,100483.25
2022-10-15T03:08:53.057Z,100477.03
2022-10-15T03:11:22.604Z,100473.06
2022-10-15T03:13:49.440Z,100468.75
2022-10-15T03:16:16.604Z,100473.03
2022-10-15T03:18:45.741Z,100475.53
2022-10-15T03:21:12.643Z,100478.88
2022-10-15T03:23:40.115Z,100476.97
2022-10-15T03:26:13.056Z,100465.63
2022-10-15T03:28:40.154Z,100478.59
2022-10-15T03:31:07.077Z,100479.59
2022-10-15T03:33:35.012Z,100480.84
2022-10-15T03:36:03.002Z,100479.34
2022-10-15T03:38:29.762Z,100483.56
2022-10-15T03:40:57.801Z,100473.97
2022-10-15T03:43:38.750Z,100467.28
2022-10-15T03:46:09.186Z,100479.47
2022-10-15T03:48:40.553Z,100477.00
2022-10-15T03:51:08.913Z,100474.78
2022-10-15T03:53:36.022Z,100471.88
2022-10-15T03:56:07.095Z,100466.97
2022-10-15T03:58:37.448Z,100468.31
2022-10-15T04:01:14.629Z,100466.06
2022-10-15T04:03:41.679Z,100471.34
2022-10-15T04:06:09.143Z,100469.03
2022-10-15T04:08:37.182Z,100473.25
2022-10-15T04:11:18.262Z,100476.91
2022-10-15T04:13:50.134Z,100473.28
2022-10-15T04:16:18.214Z,100475.38
2022-10-15T04:18:45.158Z,100478.22
2022-10-15T04:21:12.104Z,100478.63
2022-10-15T04:23:41.485Z,100479.22
2022-10-15T04:26:23.876Z,100478.31
2022-10-15T04:28:51.016Z,100481.78
2022-10-15T04:31:20.171Z,100476.28
2022-10-15T04:33:50.797Z,100469.56
2022-10-15T04:38:53.966Z,100473.28
2022-10-15T04:41:27.250Z,100478.72
2022-10-15T04:44:07.085Z,100471.78
2022-10-15T04:46:34.115Z,100480.09
2022-10-15T04:49:17.887Z,100468.06
2022-10-15T04:51:45.547Z,100474.81
2022-10-15T04:54:16.711Z,100474.94
2022-10-15T04:57:16.253Z,100477.13
2022-10-15T04:59:44.495Z,100480.19
2022-10-15T05:02:30.142Z,100471.19
2022-10-15T05:05:09.823Z,100468.16
2022-10-15T05:07:46.185Z,100477.00
2022-10-15T05:10:13.073Z,100472.94
2022-10-15T05:12:39.874Z,100477.28
2022-10-15T05:15:07.889Z,100477.13
2022-10-15T05:17:35.368Z,100473.44
2022-10-15T05:20:02.289Z,100475.78
2022-10-15T05:22:30.395Z,100480.72
2022-10-15T05:24:59.577Z,100483.63
2022-10-15T05:27:31.758Z,100482.41
2022-10-15T05:29:59.717Z,100485.38
2022-10-15T05:32:35.353Z,100481.09
2022-10-15T05:35:02.918Z,100484.06
2022-10-15T05:37:46.799Z,100477.59
2022-10-15T05:40:18.192Z,100471.34
2022-10-15T05:43:01.131Z,100476.28
2022-10-15T05:45:27.907Z,100471.34
2022-10-15T05:47:57.193Z,100470.13
2022-10-15T05:50:24.057Z,100476.03
2022-10-15T05:52:54.912Z,100472.19
2022-10-15T05:55:28.413Z,100474.94
2022-10-15T05:57:55.774Z,100474.47
2022-10-15T06:00:22.605Z,100476.88
2022-10-15T06:05:24.994Z,100476.88
2022-10-15T06:07:51.924Z,100484.50
2022-10-15T06:10:18.971Z,100480.59
2022-10-15T06:12:50.680Z,100477.75
2022-10-15T06:15:18.937Z,100476.34
2022-10-15T06:17:45.763Z,100479.53
2022-10-15T06:20:13.032Z,100474.97
2022-10-15T06:22:40.065Z,100477.03
2022-10-15T06:25:07.689Z,100471.75
2022-10-15T06:27:34.467Z,100470.41
2022-10-15T06:30:01.240Z,100466.25
2022-10-15T06:32:28.227Z,100481.72
2022-10-15T06:34:55.152Z,100478.19
2022-10-15T06:37:22.363Z,100481.22
2022-10-15T06:39:51.347Z,100484.25
2022-10-15T06:42:18.207Z,100472.47
2022-10-15T06:44:47.717Z,100481.47
2022-10-15T06:47:17.055Z,100489.59
2022-10-15T06:49:47.475Z,100490.84
2022-10-15T06:52:14.268Z,100496.41
2022-10-15T06:54:41.063Z,100496.84
2022-10-15T06:57:08.001Z,100490.06
2022-10-15T06:59:38.506Z,100497.44
2022-10-15T07:02:09.858Z,100487.59
2022-10-15T07:04:36.902Z,100490.94
2022-10-15T07:07:03.726Z,100486.16
2022-10-15T07:09:31.161Z,100486.88
2022-10-15T07:11:58.320Z,100483.56
2022-10-15T07:14:25.185Z,100482.13
2022-10-15T07:16:51.998Z,100477.03
2022-10-15T07:19:20.388Z,100475.13
2022-10-15T07:21:48.161Z,100479.63
2022-10-15T07:24:15.046Z,100486.66
2022-10-15T07:26:41.938Z,100478.84
2022-10-15T07:29:08.976Z,100473.88
2022-10-15T07:31:35.927Z,100473.94
2022-10-15T07:34:02.782Z,100473.97
2022-10-15T07:36:29.551Z,100480.13
2022-10-15T07:38:56.323Z,100476.63
2022-10-15T07:41:23.348Z,100475.25
2022-10-15T07:43:53.718Z,100472.81
2022-10-15T07:46:20.527Z,100464.69
2022-10-15T07:48:54.062Z,100470.09
2022-10-15T07:51:20.979Z,100465.97
2022-10-15T07:53:48.050Z,100473.88
2022-10-15T07:56:16.441Z,100466.66
2022-10-15T07:58:51.268Z,100468.38
2022-10-15T08:01:20.043Z,100464.13
2022-10-15T08:03:47.571Z,100458.53
2022-10-15T08:06:14.967Z,100454.00
2022-10-15T08:08:41.907Z,100453.81
2022-10-15T08:11:15.010Z,100448.34
2022-10-15T08:13:42.566Z,100448.75
2022-10-15T08:16:11.094Z,100450.63
2022-10-15T08:18:38.780Z,100461.34
2022-10-15T08:21:07.876Z,100451.91
2022-10-15T08:23:35.470Z,100454.22
2022-10-15T08:26:02.507Z,100449.31
2022-10-15T08:28:30.107Z,100454.59
2022-10-15T08:31:04.602Z,100444.84
2022-10-15T08:33:34.462Z,100458.06
2022-10-15T08:36:01.425Z,100446.56
2022-10-15T08:38:30.993Z,100450.41
2022-10-15T08:41:00.416Z,100438.06
2022-10-15T08:43:36.447Z,100442.22
2022-10-15T08:46:10.267Z,100447.88
2022-10-15T08:48:42.872Z,100456.66
2022-10-15T08:51:16.871Z,100464.75
2022-10-15T08:53:48.543Z,100461.59
2022-10-15T08:56:37.709Z,100462.50
2022-10-15T08:59:26.173Z,100459.94
2022-10-15T09:01:58.969Z,100467.53
2022-10-15T09:04:51.988Z,100473.97
2022-10-15T09:07:33.894Z,100473.38
2022-10-15T09:10:19.374Z,100472.06
2022-10-15T09:12:59.995Z,100476.69
2022-10-15T09:15:30.855Z,100475.97
2022-10-15T09:17:57.621Z,100477.09
2022-10-15T09:20:33.412Z,100469.09
2022-10-15T09:23:00.366Z,100465.25
2022-10-15T09:25:35.004Z,100458.53
2022-10-15T09:28:10.672Z,100463.59
2022-10-15T09:30:55.290Z,100457.84
2022-10-15T09:33:40.912Z,100459.53
2022-10-15T09:36:35.333Z,100457.72
2022-10-15T09:39:46.251Z,100463.06
2022-10-15T09:42:25.357Z,100450.31
2022-10-15T09:44:54.743Z,100449.44
2022-10-15T09:47:34.042Z,100455.38
2022-10-15T09:50:06.877Z,100451.66
2022-10-15T09:53:04.772Z,100451.28
2022-10-15T09:55:53.432Z,100450.78
2022-10-15T09:58:37.701Z,100453.63
2022-10-15T10:01:07.848Z,100447.00
2022-10-15T10:03:36.799Z,100448.53
2022-10-15T10:06:07.805Z,100454.13
2022-10-15T10:11:23.060Z,100449.00
2022-10-15T10:13:51.841Z,100450.13
2022-10-15T10:16:21.233Z,100461.31
2022-10-15T10:19:10.732Z,100459.59
2022-10-15T10:21:42.013Z,100467.72
2022-10-15T10:24:30.346Z,100465.91
2022-10-15T10:26:59.008Z,100459.16
2022-10-15T10:29:35.255Z,100474.16
2022-10-15T10:32:20.862Z,100475.38
2022-10-15T10:34:52.485Z,100475.66
2022-10-15T10:37:20.199Z,100473.16
2022-10-15T10:39:53.343Z,100468.78
2022-10-15T10:42:20.131Z,100466.94
2022-10-15T10:44:47.097Z,100467.59
2022-10-15T10:47:17.224Z,100460.66
2022-10-15T10:49:48.732Z,100446.81
2022-10-15T10:52:33.093Z,100448.50
2022-10-15T10:55:03.587Z,100441.06
2022-10-15T10:57:40.494Z,100437.31
2022-10-15T11:00:12.324Z,100428.88
2022-10-15T11:02:43.807Z,100435.63
2022-10-15T11:05:12.148Z,100424.88
2022-10-15T11:07:57.970Z,100420.00
2022-10-15T11:10:36.729Z,100413.78
2022-10-15T11:13:35.832Z,100408.44
2022-10-15T11:16:11.854Z,100402.31
2022-10-15T11:18:44.789Z,100389.22
2022-10-15T11:21:35.321Z,100405.09
2022-10-15T11:24:11.087Z,100401.00
2022-10-15T11:27:16.044Z,100401.00
2022-10-15T11:29:58.024Z,100396.19
2022-10-15T11:33:01.850Z,100388.91
2022-10-15T11:35:53.341Z,100391.34
2022-10-15T11:38:42.034Z,100390.28
2022-10-15T11:41:30.350Z,100386.50
2022-10-15T11:44:09.305Z,100379.44
2022-10-15T11:47:03.956Z,100390.00
2022-10-15T11:49:52.513Z,100366.56
2022-10-15T11:52:43.129Z,100373.38
2022-10-15T11:55:21.287Z,100381.75
2022-10-15T11:57:54.310Z,100385.41
2022-10-15T12:00:38.922Z,100375.22
2022-10-15T12:03:14.446Z,100372.06
2022-10-15T12:05:54.690Z,100366.81
2022-10-15T12:08:24.277Z,100358.03
2022-10-15T12:11:06.160Z,100370.94
2022-10-15T12:13:50.398Z,100359.41
2022-10-15T12:16:36.521Z,100365.16
2022-10-15T12:19:19.992Z,100365.88
2022-10-15T12:21:55.843Z,100365.00
2022-10-15T12:24:44.366Z,100355.56
2022-10-15T12:27:24.056Z,100350.63
2022-10-15T12:30:11.799Z,100356.66
2022-10-15T12:32:46.074Z,100356.66
2022-10-15T12:35:16.036Z,100353.44
2022-10-15T12:37:48.288Z,100354.03
2022-10-15T12:40:21.110Z,100355.88
2022-10-15T12:42:55.728Z,100350.59
2022-10-15T12:45:40.518Z,100354.81
2022-10-15T12:48:19.583Z,100337.72
2022-10-15T12:50:49.304Z,100340.91
2022-10-15T12:53:34.533Z,100336.41
2022-10-15T12:56:10.722Z,100335.69
2022-10-15T12:58:47.289Z,100328.25
2022-10-15T13:01:14.065Z,100321.66
2022-10-15T13:03:53.774Z,100322.06
2022-10-15T13:06:20.580Z,100326.13
2022-10-15T13:09:12.094Z,100322.25
2022-10-15T13:11:54.048Z,100323.84
2022-10-15T13:14:46.775Z,100321.13
2022-10-15T13:17:22.031Z,100321.59
2022-10-15T13:20:04.569Z,100337.38
2022-10-15T13:22:34.854Z,100328.97
2022-10-15T13:25:02.589Z,100325.13
2022-10-15T13:27:30.381Z,100326.13
2022-10-15T13:30:17.357Z,100319.72
2022-10-15T13:32:50.481Z,100332.69
2022-10-15T13:35:23.949Z,100336.53
2022-10-15T13:37:50.723Z,100321.72
2022-10-15T13:40:22.490Z,100325.78
2022-10-15T13:43:06.786Z,100324.94
2022-10-15T13:45:34.519Z,100315.25
2022-10-15T13:48:01.309Z,100317.63
2022-10-15T13:50:36.423Z,100317.38
2022-10-15T13:53:09.367Z,100315.47
2022-10-15T13:55:40.055Z,100313.50
2022-10-15T13:58:22.294Z,100312.06
2022-10-15T14:00:55.638Z,100316.59
2022-10-15T14:03:28.592Z,100307.03
2022-10-15T14:05:56.782Z,100303.06
2022-10-15T14:08:23.584Z,100300.94
2022-10-15T14:10:52.901Z,100297.97
2022-10-15T14:13:19.974Z,100301.59
2022-10-15T14:16:12.983Z,100312.59
2022-10-15T14:18:48.166Z,100302.91
2022-10-15T14:21:19.860Z,100305.91
2022-10-15T14:23:48.572Z,100307.03
2022-10-15T14:26:16.921Z,100310.03
2022-10-15T14:28:50.951Z,100310.31
2022-10-15T14:31:32.884Z,100309.03
2022-10-15T14:33:59.605Z,100311.53
2022-10-15T14:36:46.640Z,100311.81
2022-10-15T14:39:42.833Z,100319.72
2022-10-15T14:42:27.425Z,100322.59
2022-10-15T14:44:55.954Z,100326.13
2022-10-15T14:47:25.556Z,100318.44
2022-10-15T14:50:00.019Z,100322.16
2022-10-15T14:52:30.448Z,100324.53
2022-10-15T14:55:20.599Z,100319.94
2022-10-15T14:57:49.844Z,100324.75
2022-10-15T15:00:38.456Z,100317.69
2022-10-15T15:03:06.586Z,100317.63
2022-10-15T15:05:53.837Z,100316.88
2022-10-15T15:08:21.603Z,100323.25
2022-10-15T15:10:49.996Z,100323.47
2022-10-15T15:13:22.854Z,100316.72
2022-10-15T15:15:50.231Z,100314.41
2022-10-15T15:18:17.159Z,100313.22
2022-10-15T15:20:46.473Z,100306.56
2022-10-15T15:23:20.745Z,100312.34
2022-10-15T15:25:51.596Z,100313.94
2022-10-15T15:28:20.983Z,100318.53
2022-10-15T15:30:56.113Z,100305.13
2022-10-15T15:33:23.449Z,100295.38
2022-10-15T15:36:05.240Z,100291.84
2022-10-15T15:38:33.610Z,100288.16
2022-10-15T15:41:03.478Z,100290.16
2022-10-15T15:43:30.869Z,100285.47
2022-10-15T15:45:57.697Z,100286.13
2022-10-15T15:48:24.604Z,100283.38
2022-10-15T15:50:52.265Z,100289.94
2022-10-15T15:53:19.335Z,100291.94
2022-10-15T15:55:46.274Z,100306.16
2022-10-15T15:58:14.066Z,100308.50
2022-10-15T16:00:40.839Z,100312.56
2022-10-15T16:03:08.830Z,100310.38
2022-10-15T16:05:35.721Z,100317.00
2022-10-15T16:08:02.586Z,100327.00
2022-10-15T16:10:29.393Z,100331.84
2022-10-15T16:12:56.393Z,100325.59
2022-10-15T16:15:23.248Z,100330.75
2022-10-15T16:17:50.016Z,100332.44
2022-10-15T16:20:16.968Z,100334.44
2022-10-15T16:22:43.800Z,100348.56
2022-10-15T16:25:10.874Z,100354.56
2022-10-15T16:27:37.669Z,100361.97
2022-10-15T16:30:05.070Z,100361.06
2022-10-15T16:32:31.859Z,100364.81
2022-10-15T16:34:58.705Z,100373.91
2022-10-15T16:37:26.714Z,100385.97
2022-10-15T16:39:53.724Z,100387.44
2022-10-15T16:42:20.560Z,100392.28
2022-10-15T16:44:47.353Z,100397.25
2022-10-15T16:47:14.177Z,100411.50
2022-10-15T16:49:42.475Z,100406.91
2022-10-15T16:52:09.401Z,100407.97
2022-10-15T16:54:36.517Z,100415.72
2022-10-15T16:57:03.306Z,100414.38
2022-10-15T16:59:30.341Z,100420.75
2022-10-15T17:01:57.237Z,100423.84
2022-10-15T17:04:24.102Z,100427.91
2022-10-15T17:06:51.036Z,100429.66
2022-10-15T17:09:17.854Z,100429.03
2022-10-15T17:11:47.000Z,100435.91
2022-10-15T17:14:16.312Z,100448.88
2022-10-15T17:16:45.969Z,100445.31
2022-10-15T17:19:14.629Z,100440.13
2022-10-15T17:21:42.603Z,100453.50
2022-10-15T17:24:12.465Z,100452.66
2022-10-15T17:26:40.645Z,100458.75
2022-10-15T17:29:13.886Z,100461.47
2022-10-15T17:31:40.667Z,100465.94
2022-10-15T17:34:10.873Z,100473.81
2022-10-15T17:36:43.162Z,100472.16
2022-10-15T17:39:14.621Z,100476.78
2022-10-15T17:41:41.665Z,100485.16
2022-10-15T17:44:09.211Z,100487.38
2022-10-15T17:46:36.046Z,100499.69
2022-10-15T17:49:03.628Z,100493.78
2022-10-15T17:51:32.465Z,100490.22
2022-10-15T17:54:02.095Z,100494.25
2022-10-15T17:56:32.004Z,100499.09
2022-10-15T17:59:00.575Z,100504.22
2022-10-15T18:01:56.710Z,100507.19
2022-10-15T18:04:19.635Z,100513.78
2022-10-15T18:06:46.405Z,100518.09
2022-10-15T18:09:24.559Z,100511.56
2022-10-15T18:11:51.423Z,100512.91
2022-10-15T18:14:18.490Z,100519.59
2022-10-15T18:16:45.910Z,100518.22
2022-10-15T18:19:12.996Z,100518.63
2022-10-15T18:21:39.891Z,100530.41
2022-10-15T18:24:06.743Z,100531.72
2022-10-15T18:26:33.605Z,100528.56
2022-10-15T18:29:00.549Z,100524.81
2022-10-15T18:31:27.695Z,100520.72
2022-10-15T18:33:56.079Z,100531.78
2022-10-15T18:36:25.985Z,100542.53
2022-10-15T18:38:55.331Z,100544.47
2022-10-15T18:41:28.168Z,100543.81
2022-10-15T18:43:58.920Z,100545.72
2022-10-15T18:46:31.119Z,100549.97
2022-10-15T18:48:58.531Z,100556.06
2022-10-15T18:51:26.948Z,100552.28
2022-10-15T18:53:54.226Z,100552.38
2022-10-15T18:56:21.906Z,100559.47
2022-10-15T18:58:48.891Z,100561.94
2022-10-15T19:01:36.453Z,100555.47
2022-10-15T19:04:06.235Z,100550.84
2022-10-15T19:06:38.990Z,100548.84
2022-10-15T19:09:08.915Z,100549.41
2022-10-15T19:11:36.829Z,100545.44
2022-10-15T19:14:04.995Z,100561.63
2022-10-15T19:16:31.820Z,100565.97
2022-10-15T19:19:12.609Z,100561.88
2022-10-15T19:21:39.369Z,100569.94
2022-10-15T19:24:06.621Z,100564.69
2022-10-15T19:26:34.329Z,100569.47
2022-10-15T19:29:02.119Z,100565.38
2022-10-15T19:31:35.247Z,100574.03
2022-10-15T19:34:02.712Z,100573.09
2022-10-15T19:36:34.092Z,100579.50
2022-10-15T19:39:04.158Z,100582.56
2022-10-15T19:41:30.972Z,100583.72
2022-10-15T19:43:57.973Z,100585.72
2022-10-15T19:46:24.949Z,100579.84
2022-10-15T19:48:51.727Z,100581.28
2022-10-15T19:51:21.460Z,100580.53
2022-10-15T19:53:56.349Z,100579.41
2022-10-15T19:56:23.458Z,100584.84
2022-10-15T19:58:56.028Z,100589.06
2022-10-15T20:01:23.020Z,100585.81
2022-10-15T20:03:49.912Z,100591.81
2022-10-15T20:06:17.396Z,100596.84
2022-10-15T20:08:44.226Z,100605.56
2022-10-15T20:11:11.103Z,100604.94
2022-10-15T20:13:38.079Z,100599.53
2022-10-15T20:16:08.508Z,100608.72
2022-10-15T20:18:36.177Z,100608.81
2022-10-15T20:21:10.714Z,100613.63
2022-10-15T20:23:38.506Z,100618.06
2022-10-15T20:26:07.371Z,100620.41
2022-10-15T20:28:39.055Z,100624.69
2022-10-15T20:31:17.421Z,100623.72
2022-10-15T20:33:44.922Z,100630.88
2022-10-15T20:36:17.106Z,100627.25
2022-10-15T20:38:45.862Z,100632.28
2022-10-15T20:41:16.066Z,100637.44
2022-10-15T20:43:44.162Z,100631.34
2022-10-15T20:46:22.112Z,100639.84
2022-10-15T20:48:49.626Z,100634.94
2022-10-15T20:51:18.957Z,100640.00
2022-10-15T20:53:46.296Z,100633.63
2022-10-15T20:56:14.069Z,100632.22
2022-10-15T20:58:41.005Z,100635.78
2022-10-15T21:01:07.992Z,100632.22
2022-10-15T21:03:34.981Z,100631.00
2022-10-15T21:06:01.999Z,100640.44
2022-10-15T21:08:28.859Z,100636.63
2022-10-15T21:11:04.009Z,100632.09
2022-10-15T21:13:31.179Z,100645.22
2022-10-15T21:16:02.748Z,100642.81
2022-10-15T21:18:29.963Z,100644.75
2022-10-15T21:21:08.776Z,100649.44
2022-10-15T21:23:36.789Z,100650.84
2022-10-15T21:26:11.262Z,100650.34
2022-10-15T21:28:38.187Z,100654.63
2022-10-15T21:31:10.721Z,100658.44
2022-10-15T21:33:37.757Z,100657.16
2022-10-15T21:36:22.823Z,100665.47
2022-10-15T21:38:53.476Z,100670.50
2022-10-15T21:41:21.361Z,100668.19
2022-10-15T21:46:20.219Z,100671.94
2022-10-15T21:48:47.222Z,100671.94
2022-10-15T21:51:16.822Z,100668.66
2022-10-15T21:53:44.370Z,100677.94
2022-10-15T21:56:11.682Z,100683.56
2022-10-15T21:58:40.178Z,100687.31
2022-10-15T22:01:09.094Z,100689.72
2022-10-15T22:03:36.000Z,100682.94
2022-10-15T22:06:02.851Z,100691.81
2022-10-15T22:08:30.525Z,100685.00
2022-10-15T22:11:12.130Z,100691.09
2022-10-15T22:13:43.427Z,100701.19
2022-10-15T22:16:11.356Z,100702.63
2022-10-15T22:18:39.905Z,100694.75
2022-10-15T22:21:15.875Z,100698.19
2022-10-15T22:23:55.169Z,100702.97
2022-10-15T22:26:26.581Z,100712.41
2022-10-15T22:28:55.292Z,100713.50
2022-10-15T22:31:22.383Z,100704.41
2022-10-15T22:33:49.517Z,100708.25
2022-10-15T22:36:28.459Z,100708.75
2022-10-15T22:38:58.348Z,100704.78
2022-10-15T22:41:25.119Z,100701.63
2022-10-15T22:43:51.893Z,100705.97
2022-10-15T22:46:18.644Z,100698.09
2022-10-15T22:48:45.569Z,100696.13
2022-10-15T22:51:13.962Z,100699.59
2022-10-15T22:53:41.069Z,100700.81
2022-10-15T22:56:12.482Z,100701.50
2022-10-15T22:58:39.684Z,100702.00
2022-10-15T23:01:26.780Z,100694.78
2022-10-15T23:03:57.174Z,100704.50
2022-10-15T23:06:25.796Z,100705.13
2022-10-15T23:08:52.695Z,100712.75
2022-10-15T23:11:25.882Z,100713.50
2022-10-15T23:13:58.192Z,100720.31
2022-10-15T23:16:28.943Z,100714.88
2022-10-15T23:18:58.323Z,100715.69
2022-10-15T23:21:40.667Z,100714.69
2022-10-15T23:24:08.379Z,100721.00
2022-10-15T23:26:36.571Z,100713.59
2022-10-15T23:29:04.779Z,100713.63
2022-10-15T23:31:33.966Z,100720.75
2022-10-15T23:34:02.000Z,100714.66
2022-10-15T23:36:29.769Z,100721.13
2022-10-15T23:38:59.211Z,100716.31
2022-10-15T23:41:27.343Z,100720.44
2022-10-15T23:43:55.375Z,100725.00
2022-10-15T23:46:22.365Z,100723.09
2022-10-15T23:48:49.545Z,100719.41
2022-10-15T23:51:30.208Z,100729.06
2022-10-15T23:53:59.048Z,100716.63
2022-10-15T23:56:26.529Z,100719.16
2022-10-15T23:58:56.147Z,100721.28
